sensor_id;sensor_type;location;lat;lon;timestamp;P1;durP1;ratioP1;P2;durP2;ratioP2
75971;SDS011;64651;47.540;19.088;2022-11-20T00:01:51;29.07;;;10.13;;
75971;SDS011;64651;47.540;19.088;2022-11-20T00:06:53;30.58;;;9.60;;
75971;SDS011;64651;47.540;19.088;2022-11-20T00:11:55;27.73;;;8.60;;
75971;SDS011;64651;47.540;19.088;2022-11-20T00:16:57;24.37;;;9.00;;
75971;SDS011;64651;47.540;19.088;2022-11-20T00:21:59;24.77;;;9.00;;
75971;SDS011;64651;47.540;19.088;2022-11-20T00:27:01;23.67;;;9.07;;
75971;SDS011;64651;47.540;19.088;2022-11-20T00:32:03;25.42;;;8.93;;
75971;SDS011;64651;47.540;19.088;2022-11-20T00:37:06;25.13;;;9.10;;
75971;SDS011;64651;47.540;19.088;2022-11-20T00:42:08;29.67;;;9.48;;
75971;SDS011;64651;47.540;19.088;2022-11-20T00:47:10;25.92;;;8.70;;
75971;SDS011;64651;47.540;19.088;2022-11-20T00:52:12;25.40;;;8.70;;
75971;SDS011;64651;47.540;19.088;2022-11-20T00:57:14;25.37;;;8.85;;
75971;SDS011;64651;47.540;19.088;2022-11-20T01:02:16;29.27;;;9.60;;
75971;SDS011;64651;47.540;19.088;2022-11-20T01:07:18;30.98;;;9.82;;
75971;SDS011;64651;47.540;19.088;2022-11-20T01:12:20;28.40;;;10.30;;
75971;SDS011;64651;47.540;19.088;2022-11-20T01:17:22;33.87;;;10.70;;
75971;SDS011;64651;47.540;19.088;2022-11-20T01:22:24;33.10;;;11.00;;
75971;SDS011;64651;47.540;19.088;2022-11-20T01:27:26;36.70;;;11.20;;
75971;SDS011;64651;47.540;19.088;2022-11-20T01:32:29;35.15;;;12.63;;
75971;SDS011;64651;47.540;19.088;2022-11-20T01:37:31;35.90;;;10.80;;
75971;SDS011;64651;47.540;19.088;2022-11-20T01:42:33;35.23;;;10.93;;
75971;SDS011;64651;47.540;19.088;2022-11-20T01:48:07;32.05;;;10.15;;
75971;SDS011;64651;47.540;19.088;2022-11-20T01:53:11;37.57;;;11.50;;
75971;SDS011;64651;47.540;19.088;2022-11-20T01:58:20;35.47;;;10.98;;
75971;SDS011;64651;47.540;19.088;2022-11-20T02:03:26;34.55;;;11.52;;
75971;SDS011;64651;47.540;19.088;2022-11-20T02:08:29;36.57;;;11.07;;
75971;SDS011;64651;47.540;19.088;2022-11-20T02:13:33;38.20;;;12.43;;
75971;SDS011;64651;47.540;19.088;2022-11-20T02:18:45;36.43;;;10.87;;
75971;SDS011;64651;47.540;19.088;2022-11-20T02:24:31;32.38;;;11.52;;
75971;SDS011;64651;47.540;19.088;2022-11-20T02:29:14;34.53;;;11.25;;
75971;SDS011;64651;47.540;19.088;2022-11-20T02:34:20;35.27;;;10.63;;
75971;SDS011;64651;47.540;19.088;2022-11-20T02:39:23;36.50;;;11.70;;
75971;SDS011;64651;47.540;19.088;2022-11-20T02:44:27;38.87;;;12.40;;
75971;SDS011;64651;47.540;19.088;2022-11-20T02:49:29;36.35;;;11.85;;
75971;SDS011;64651;47.540;19.088;2022-11-20T02:54:31;36.25;;;11.68;;
75971;SDS011;64651;47.540;19.088;2022-11-20T02:59:33;32.80;;;10.80;;
75971;SDS011;64651;47.540;19.088;2022-11-20T03:04:35;38.83;;;11.50;;
75971;SDS011;64651;47.540;19.088;2022-11-20T03:09:37;32.20;;;10.30;;
75971;SDS011;64651;47.540;19.088;2022-11-20T03:14:39;34.45;;;11.20;;
75971;SDS011;64651;47.540;19.088;2022-11-20T03:19:42;33.55;;;11.63;;
75971;SDS011;64651;47.540;19.088;2022-11-20T03:24:44;30.57;;;10.67;;
75971;SDS011;64651;47.540;19.088;2022-11-20T03:29:46;30.45;;;10.50;;
75971;SDS011;64651;47.540;19.088;2022-11-20T03:34:48;29.43;;;10.07;;
75971;SDS011;64651;47.540;19.088;2022-11-20T03:39:50;29.92;;;10.40;;
75971;SDS011;64651;47.540;19.088;2022-11-20T03:44:52;28.05;;;9.50;;
75971;SDS011;64651;47.540;19.088;2022-11-20T03:49:54;30.23;;;10.77;;
75971;SDS011;64651;47.540;19.088;2022-11-20T03:54:56;29.10;;;10.32;;
75971;SDS011;64651;47.540;19.088;2022-11-20T03:59:58;30.77;;;10.73;;
75971;SDS011;64651;47.540;19.088;2022-11-20T04:05:00;30.77;;;11.32;;
75971;SDS011;64651;47.540;19.088;2022-11-20T04:10:03;30.98;;;10.93;;
75971;SDS011;64651;47.540;19.088;2022-11-20T04:15:05;31.40;;;11.17;;
75971;SDS011;64651;47.540;19.088;2022-11-20T04:20:07;28.65;;;10.88;;
75971;SDS011;64651;47.540;19.088;2022-11-20T04:25:10;31.97;;;11.10;;
75971;SDS011;64651;47.540;19.088;2022-11-20T04:30:12;31.50;;;10.75;;
75971;SDS011;64651;47.540;19.088;2022-11-20T04:35:14;32.72;;;10.98;;
75971;SDS011;64651;47.540;19.088;2022-11-20T04:40:16;35.30;;;12.10;;
75971;SDS011;64651;47.540;19.088;2022-11-20T04:45:18;32.72;;;10.68;;
75971;SDS011;64651;47.540;19.088;2022-11-20T04:50:20;32.03;;;11.27;;
75971;SDS011;64651;47.540;19.088;2022-11-20T04:55:22;28.92;;;11.05;;
75971;SDS011;64651;47.540;19.088;2022-11-20T05:00:24;30.37;;;10.85;;
75971;SDS011;64651;47.540;19.088;2022-11-20T05:05:26;28.17;;;10.37;;
75971;SDS011;64651;47.540;19.088;2022-11-20T05:10:29;33.17;;;11.20;;
75971;SDS011;64651;47.540;19.088;2022-11-20T05:15:31;29.53;;;11.03;;
75971;SDS011;64651;47.540;19.088;2022-11-20T05:20:34;30.95;;;10.50;;
75971;SDS011;64651;47.540;19.088;2022-11-20T05:25:37;29.73;;;10.27;;
75971;SDS011;64651;47.540;19.088;2022-11-20T05:30:39;33.37;;;10.77;;
75971;SDS011;64651;47.540;19.088;2022-11-20T05:35:41;32.08;;;11.52;;
75971;SDS011;64651;47.540;19.088;2022-11-20T05:40:44;25.67;;;10.00;;
75971;SDS011;64651;47.540;19.088;2022-11-20T05:45:53;29.00;;;10.93;;
75971;SDS011;64651;47.540;19.088;2022-11-20T05:50:59;31.60;;;11.02;;
75971;SDS011;64651;47.540;19.088;2022-11-20T05:56:04;27.90;;;9.83;;
75971;SDS011;64651;47.540;19.088;2022-11-20T06:01:08;31.98;;;10.60;;
75971;SDS011;64651;47.540;19.088;2022-11-20T06:06:14;28.83;;;9.33;;
75971;SDS011;64651;47.540;19.088;2022-11-20T06:11:17;29.12;;;9.48;;
75971;SDS011;64651;47.540;19.088;2022-11-20T06:16:19;28.60;;;10.18;;
75971;SDS011;64651;47.540;19.088;2022-11-20T06:21:22;27.87;;;9.30;;
75971;SDS011;64651;47.540;19.088;2022-11-20T06:26:25;26.58;;;9.57;;
75971;SDS011;64651;47.540;19.088;2022-11-20T06:31:30;26.07;;;9.00;;
75971;SDS011;64651;47.540;19.088;2022-11-20T06:36:34;26.48;;;9.13;;
75971;SDS011;64651;47.540;19.088;2022-11-20T06:41:36;28.85;;;9.38;;
75971;SDS011;64651;47.540;19.088;2022-11-20T06:46:38;25.00;;;8.67;;
75971;SDS011;64651;47.540;19.088;2022-11-20T06:51:40;25.55;;;8.85;;
75971;SDS011;64651;47.540;19.088;2022-11-20T06:56:46;25.53;;;8.83;;
75971;SDS011;64651;47.540;19.088;2022-11-20T07:01:49;24.83;;;8.85;;
75971;SDS011;64651;47.540;19.088;2022-11-20T07:06:51;25.67;;;8.85;;
75971;SDS011;64651;47.540;19.088;2022-11-20T07:11:53;29.07;;;9.80;;
75971;SDS011;64651;47.540;19.088;2022-11-20T07:16:55;26.52;;;9.80;;
75971;SDS011;64651;47.540;19.088;2022-11-20T07:21:57;25.83;;;9.63;;
75971;SDS011;64651;47.540;19.088;2022-11-20T07:27:00;29.15;;;10.13;;
75971;SDS011;64651;47.540;19.088;2022-11-20T07:32:03;27.30;;;9.65;;
75971;SDS011;64651;47.540;19.088;2022-11-20T07:37:05;29.90;;;10.73;;
75971;SDS011;64651;47.540;19.088;2022-11-20T07:42:11;32.45;;;11.20;;
75971;SDS011;64651;47.540;19.088;2022-11-20T07:47:13;29.13;;;11.00;;
75971;SDS011;64651;47.540;19.088;2022-11-20T07:52:15;30.12;;;10.98;;
75971;SDS011;64651;47.540;19.088;2022-11-20T07:57:17;36.10;;;12.00;;
75971;SDS011;64651;47.540;19.088;2022-11-20T08:02:22;31.47;;;11.47;;
75971;SDS011;64651;47.540;19.088;2022-11-20T08:07:24;29.23;;;11.43;;
75971;SDS011;64651;47.540;19.088;2022-11-20T08:12:27;30.93;;;11.43;;
75971;SDS011;64651;47.540;19.088;2022-11-20T08:17:47;34.58;;;12.27;;
75971;SDS011;64651;47.540;19.088;2022-11-20T08:23:09;33.55;;;11.77;;
75971;SDS011;64651;47.540;19.088;2022-11-20T08:28:11;34.40;;;13.33;;
75971;SDS011;64651;47.540;19.088;2022-11-20T08:33:22;36.25;;;13.75;;
75971;SDS011;64651;47.540;19.088;2022-11-20T08:38:24;39.53;;;15.77;;
75971;SDS011;64651;47.540;19.088;2022-11-20T08:43:26;37.25;;;14.82;;
75971;SDS011;64651;47.540;19.088;2022-11-20T08:48:28;38.15;;;15.43;;
75971;SDS011;64651;47.540;19.088;2022-11-20T08:53:30;35.90;;;13.33;;
75971;SDS011;64651;47.540;19.088;2022-11-20T08:58:32;32.00;;;13.27;;
75971;SDS011;64651;47.540;19.088;2022-11-20T09:03:54;28.07;;;11.60;;
75971;SDS011;64651;47.540;19.088;2022-11-20T09:08:58;28.25;;;11.80;;
75971;SDS011;64651;47.540;19.088;2022-11-20T09:14:07;30.45;;;11.55;;
75971;SDS011;64651;47.540;19.088;2022-11-20T09:19:09;32.57;;;12.43;;
75971;SDS011;64651;47.540;19.088;2022-11-20T09:24:31;31.75;;;12.45;;
75971;SDS011;64651;47.540;19.088;2022-11-20T09:29:33;29.43;;;12.27;;
75971;SDS011;64651;47.540;19.088;2022-11-20T09:34:35;33.22;;;12.52;;
75971;SDS011;64651;47.540;19.088;2022-11-20T09:39:37;30.20;;;12.25;;
75971;SDS011;64651;47.540;19.088;2022-11-20T09:55:25;28.57;;;11.10;;
75971;SDS011;64651;47.540;19.088;2022-11-20T10:00:29;29.63;;;12.15;;
75971;SDS011;64651;47.540;19.088;2022-11-20T10:05:47;30.77;;;12.13;;
75971;SDS011;64651;47.540;19.088;2022-11-20T10:11:04;31.50;;;12.60;;
75971;SDS011;64651;47.540;19.088;2022-11-20T10:21:49;31.30;;;12.47;;
75971;SDS011;64651;47.540;19.088;2022-11-20T10:32:15;29.50;;;11.50;;
75971;SDS011;64651;47.540;19.088;2022-11-20T10:42:34;27.98;;;12.35;;
75971;SDS011;64651;47.540;19.088;2022-11-20T10:47:38;28.63;;;12.50;;
75971;SDS011;64651;47.540;19.088;2022-11-20T10:52:44;27.40;;;13.40;;
75971;SDS011;64651;47.540;19.088;2022-11-20T11:02:59;28.47;;;12.90;;
75971;SDS011;64651;47.540;19.088;2022-11-20T11:08:05;27.10;;;13.82;;
75971;SDS011;64651;47.540;19.088;2022-11-20T11:18:33;28.23;;;13.13;;
75971;SDS011;64651;47.540;19.088;2022-11-20T11:23:37;28.87;;;13.05;;
75971;SDS011;64651;47.540;19.088;2022-11-20T11:28:54;26.97;;;12.13;;
75971;SDS011;64651;47.540;19.088;2022-11-20T11:39:17;30.03;;;14.17;;
75971;SDS011;64651;47.540;19.088;2022-11-20T11:55:29;31.87;;;13.47;;
75971;SDS011;64651;47.540;19.088;2022-11-20T12:00:39;30.30;;;12.57;;
75971;SDS011;64651;47.540;19.088;2022-11-20T12:05:53;30.17;;;13.37;;
75971;SDS011;64651;47.540;19.088;2022-11-20T12:11:03;30.30;;;12.63;;
75971;SDS011;64651;47.540;19.088;2022-11-20T12:16:11;33.47;;;13.10;;
75971;SDS011;64651;47.540;19.088;2022-11-20T12:21:20;33.63;;;13.50;;
75971;SDS011;64651;47.540;19.088;2022-11-20T12:32:03;32.70;;;13.27;;
75971;SDS011;64651;47.540;19.088;2022-11-20T12:37:15;31.37;;;13.05;;
75971;SDS011;64651;47.540;19.088;2022-11-20T12:59:19;34.83;;;13.47;;
75971;SDS011;64651;47.540;19.088;2022-11-20T13:10:13;35.90;;;12.98;;
75971;SDS011;64651;47.540;19.088;2022-11-20T13:15:33;33.03;;;13.80;;
75971;SDS011;64651;47.540;19.088;2022-11-20T13:20:44;30.90;;;12.85;;
75971;SDS011;64651;47.540;19.088;2022-11-20T13:25:48;31.83;;;12.17;;
75971;SDS011;64651;47.540;19.088;2022-11-20T13:30:52;33.90;;;13.07;;
75971;SDS011;64651;47.540;19.088;2022-11-20T13:36:03;29.05;;;12.37;;
75971;SDS011;64651;47.540;19.088;2022-11-20T13:41:07;31.43;;;11.63;;
75971;SDS011;64651;47.540;19.088;2022-11-20T13:46:35;30.17;;;12.63;;
75971;SDS011;64651;47.540;19.088;2022-11-20T14:02:29;34.65;;;13.40;;
75971;SDS011;64651;47.540;19.088;2022-11-20T14:07:35;33.60;;;12.60;;
75971;SDS011;64651;47.540;19.088;2022-11-20T14:12:41;32.75;;;12.98;;
75971;SDS011;64651;47.540;19.088;2022-11-20T14:17:43;30.40;;;13.00;;
75971;SDS011;64651;47.540;19.088;2022-11-20T14:22:52;35.22;;;12.70;;
75971;SDS011;64651;47.540;19.088;2022-11-20T14:27:56;32.55;;;12.40;;
75971;SDS011;64651;47.540;19.088;2022-11-20T14:33:01;32.07;;;13.23;;
75971;SDS011;64651;47.540;19.088;2022-11-20T14:38:08;34.83;;;12.43;;
75971;SDS011;64651;47.540;19.088;2022-11-20T14:48:30;33.28;;;12.60;;
75971;SDS011;64651;47.540;19.088;2022-11-20T14:53:37;36.40;;;13.45;;
75971;SDS011;64651;47.540;19.088;2022-11-20T14:58:39;36.23;;;13.80;;
75971;SDS011;64651;47.540;19.088;2022-11-20T15:03:41;33.33;;;13.35;;
75971;SDS011;64651;47.540;19.088;2022-11-20T15:08:50;32.87;;;12.47;;
75971;SDS011;64651;47.540;19.088;2022-11-20T15:13:53;35.17;;;14.35;;
75971;SDS011;64651;47.540;19.088;2022-11-20T15:18:55;35.03;;;13.77;;
75971;SDS011;64651;47.540;19.088;2022-11-20T15:23:58;38.43;;;14.80;;
75971;SDS011;64651;47.540;19.088;2022-11-20T15:29:02;33.35;;;13.77;;
75971;SDS011;64651;47.540;19.088;2022-11-20T15:34:05;33.97;;;13.50;;
75971;SDS011;64651;47.540;19.088;2022-11-20T15:39:09;40.05;;;14.77;;
75971;SDS011;64651;47.540;19.088;2022-11-20T15:44:13;42.22;;;14.40;;
75971;SDS011;64651;47.540;19.088;2022-11-20T15:49:16;40.17;;;14.53;;
75971;SDS011;64651;47.540;19.088;2022-11-20T15:54:21;41.58;;;15.02;;
75971;SDS011;64651;47.540;19.088;2022-11-20T15:59:24;39.83;;;14.83;;
75971;SDS011;64651;47.540;19.088;2022-11-20T16:04:26;38.60;;;14.40;;
75971;SDS011;64651;47.540;19.088;2022-11-20T16:09:28;42.62;;;14.73;;
75971;SDS011;64651;47.540;19.088;2022-11-20T16:14:31;41.43;;;15.40;;
75971;SDS011;64651;47.540;19.088;2022-11-20T16:19:51;39.13;;;14.45;;
75971;SDS011;64651;47.540;19.088;2022-11-20T16:24:54;46.93;;;14.77;;
75971;SDS011;64651;47.540;19.088;2022-11-20T16:29:56;43.60;;;15.05;;
75971;SDS011;64651;47.540;19.088;2022-11-20T16:34:58;42.20;;;15.27;;
75971;SDS011;64651;47.540;19.088;2022-11-20T16:40:00;42.07;;;15.20;;
75971;SDS011;64651;47.540;19.088;2022-11-20T16:45:03;42.78;;;15.30;;
75971;SDS011;64651;47.540;19.088;2022-11-20T16:50:06;40.97;;;14.73;;
75971;SDS011;64651;47.540;19.088;2022-11-20T16:55:09;37.45;;;14.20;;
75971;SDS011;64651;47.540;19.088;2022-11-20T17:00:12;42.00;;;14.20;;
75971;SDS011;64651;47.540;19.088;2022-11-20T17:05:15;40.93;;;14.00;;
75971;SDS011;64651;47.540;19.088;2022-11-20T17:10:17;42.20;;;15.45;;
75971;SDS011;64651;47.540;19.088;2022-11-20T17:15:19;40.67;;;15.50;;
75971;SDS011;64651;47.540;19.088;2022-11-20T17:20:21;42.30;;;14.70;;
75971;SDS011;64651;47.540;19.088;2022-11-20T17:25:23;42.65;;;14.35;;
75971;SDS011;64651;47.540;19.088;2022-11-20T17:30:25;44.37;;;14.73;;
75971;SDS011;64651;47.540;19.088;2022-11-20T17:35:27;45.63;;;15.63;;
75971;SDS011;64651;47.540;19.088;2022-11-20T17:40:30;41.70;;;14.13;;
75971;SDS011;64651;47.540;19.088;2022-11-20T17:45:34;46.67;;;15.48;;
75971;SDS011;64651;47.540;19.088;2022-11-20T17:50:37;47.67;;;16.27;;
75971;SDS011;64651;47.540;19.088;2022-11-20T17:55:39;46.53;;;15.77;;
75971;SDS011;64651;47.540;19.088;2022-11-20T18:01:03;42.65;;;16.08;;
75971;SDS011;64651;47.540;19.088;2022-11-20T18:06:16;51.50;;;16.73;;
75971;SDS011;64651;47.540;19.088;2022-11-20T18:11:24;46.75;;;17.70;;
75971;SDS011;64651;47.540;19.088;2022-11-20T18:16:29;48.92;;;17.33;;
75971;SDS011;64651;47.540;19.088;2022-11-20T18:21:32;45.53;;;16.97;;
75971;SDS011;64651;47.540;19.088;2022-11-20T18:26:35;44.72;;;17.65;;
75971;SDS011;64651;47.540;19.088;2022-11-20T18:31:44;52.73;;;19.77;;
75971;SDS011;64651;47.540;19.088;2022-11-20T18:36:47;51.42;;;20.70;;
75971;SDS011;64651;47.540;19.088;2022-11-20T18:41:49;47.47;;;18.37;;
75971;SDS011;64651;47.540;19.088;2022-11-20T18:47:11;52.23;;;19.17;;
75971;SDS011;64651;47.540;19.088;2022-11-20T18:52:20;51.75;;;20.35;;
75971;SDS011;64651;47.540;19.088;2022-11-20T18:57:24;46.23;;;18.67;;
75971;SDS011;64651;47.540;19.088;2022-11-20T19:02:27;49.13;;;18.42;;
75971;SDS011;64651;47.540;19.088;2022-11-20T19:07:30;51.55;;;19.42;;
75971;SDS011;64651;47.540;19.088;2022-11-20T19:12:32;55.50;;;20.70;;
75971;SDS011;64651;47.540;19.088;2022-11-20T19:17:34;52.47;;;19.58;;
75971;SDS011;64651;47.540;19.088;2022-11-20T19:22:36;53.87;;;19.87;;
75971;SDS011;64651;47.540;19.088;2022-11-20T19:27:38;54.85;;;20.73;;
75971;SDS011;64651;47.540;19.088;2022-11-20T19:32:40;56.55;;;21.37;;
75971;SDS011;64651;47.540;19.088;2022-11-20T19:37:42;57.40;;;22.07;;
75971;SDS011;64651;47.540;19.088;2022-11-20T19:42:44;61.50;;;21.45;;
75971;SDS011;64651;47.540;19.088;2022-11-20T19:47:46;56.87;;;22.27;;
75971;SDS011;64651;47.540;19.088;2022-11-20T19:53:08;57.38;;;21.10;;
75971;SDS011;64651;47.540;19.088;2022-11-20T19:58:12;58.47;;;21.27;;
75971;SDS011;64651;47.540;19.088;2022-11-20T20:03:14;55.90;;;21.37;;
75971;SDS011;64651;47.540;19.088;2022-11-20T20:08:16;62.22;;;23.92;;
75971;SDS011;64651;47.540;19.088;2022-11-20T20:13:20;58.10;;;23.23;;
75971;SDS011;64651;47.540;19.088;2022-11-20T20:18:22;66.12;;;24.15;;
75971;SDS011;64651;47.540;19.088;2022-11-20T20:23:25;54.33;;;22.15;;
75971;SDS011;64651;47.540;19.088;2022-11-20T20:28:27;60.93;;;22.83;;
75971;SDS011;64651;47.540;19.088;2022-11-20T20:33:30;58.97;;;22.77;;
75971;SDS011;64651;47.540;19.088;2022-11-20T20:38:32;62.20;;;23.47;;
75971;SDS011;64651;47.540;19.088;2022-11-20T20:43:35;57.42;;;23.50;;
75971;SDS011;64651;47.540;19.088;2022-11-20T20:48:58;61.65;;;23.83;;
75971;SDS011;64651;47.540;19.088;2022-11-20T20:54:00;65.23;;;25.23;;
75971;SDS011;64651;47.540;19.088;2022-11-20T20:59:03;66.87;;;26.58;;
75971;SDS011;64651;47.540;19.088;2022-11-20T21:04:05;65.10;;;26.47;;
75971;SDS011;64651;47.540;19.088;2022-11-20T21:09:07;73.28;;;28.77;;
75971;SDS011;64651;47.540;19.088;2022-11-20T21:14:09;70.12;;;25.83;;
75971;SDS011;64651;47.540;19.088;2022-11-20T21:19:11;64.77;;;24.30;;
75971;SDS011;64651;47.540;19.088;2022-11-20T21:24:13;63.00;;;25.05;;
75971;SDS011;64651;47.540;19.088;2022-11-20T21:29:15;62.07;;;24.83;;
75971;SDS011;64651;47.540;19.088;2022-11-20T21:34:17;60.53;;;25.27;;
75971;SDS011;64651;47.540;19.088;2022-11-20T21:39:19;65.72;;;25.42;;
75971;SDS011;64651;47.540;19.088;2022-11-20T21:44:22;61.50;;;24.93;;
75971;SDS011;64651;47.540;19.088;2022-11-20T21:49:32;62.42;;;23.83;;
75971;SDS011;64651;47.540;19.088;2022-11-20T21:54:34;57.67;;;21.60;;
75971;SDS011;64651;47.540;19.088;2022-11-20T21:59:36;57.62;;;20.60;;
75971;SDS011;64651;47.540;19.088;2022-11-20T22:04:38;51.17;;;19.10;;
75971;SDS011;64651;47.540;19.088;2022-11-20T22:09:41;71.07;;;25.97;;
75971;SDS011;64651;47.540;19.088;2022-11-20T22:14:43;68.87;;;26.37;;
75971;SDS011;64651;47.540;19.088;2022-11-20T22:19:46;68.30;;;28.73;;
75971;SDS011;64651;47.540;19.088;2022-11-20T22:24:48;71.30;;;28.80;;
75971;SDS011;64651;47.540;19.088;2022-11-20T22:29:51;69.53;;;29.12;;
75971;SDS011;64651;47.540;19.088;2022-11-20T22:34:53;72.73;;;30.73;;
75971;SDS011;64651;47.540;19.088;2022-11-20T22:39:55;77.72;;;32.17;;
75971;SDS011;64651;47.540;19.088;2022-11-20T22:44:57;69.20;;;29.00;;
75971;SDS011;64651;47.540;19.088;2022-11-20T22:49:59;67.05;;;27.30;;
75971;SDS011;64651;47.540;19.088;2022-11-20T22:55:01;64.25;;;26.85;;
75971;SDS011;64651;47.540;19.088;2022-11-20T23:00:03;68.37;;;26.67;;
75971;SDS011;64651;47.540;19.088;2022-11-20T23:05:06;66.03;;;27.80;;
75971;SDS011;64651;47.540;19.088;2022-11-20T23:10:08;66.53;;;26.87;;
75971;SDS011;64651;47.540;19.088;2022-11-20T23:15:11;66.03;;;26.48;;
75971;SDS011;64651;47.540;19.088;2022-11-20T23:20:13;67.50;;;26.83;;
75971;SDS011;64651;47.540;19.088;2022-11-20T23:25:15;64.83;;;24.73;;
75971;SDS011;64651;47.540;19.088;2022-11-20T23:30:17;68.95;;;28.25;;
75971;SDS011;64651;47.540;19.088;2022-11-20T23:35:19;72.20;;;28.03;;
75971;SDS011;64651;47.540;19.088;2022-11-20T23:40:21;70.03;;;29.90;;
75971;SDS011;64651;47.540;19.088;2022-11-20T23:45:23;71.30;;;30.73;;
75971;SDS011;64651;47.540;19.088;2022-11-20T23:50:25;78.40;;;31.10;;
75971;SDS011;64651;47.540;19.088;2022-11-20T23:55:27;74.57;;;30.73;;
